sensor_id;sensor_type;location;lat;lon;timestamp;P1;durP1;ratioP1;P2;durP2;ratioP2
4214;SDS011;2121;48.062;7.850;2023-12-20T00:01:25;3.80;;;1.33;;
4214;SDS011;2121;48.062;7.850;2023-12-20T00:03:50;1.10;;;1.10;;
4214;SDS011;2121;48.062;7.850;2023-12-20T00:06:16;1.47;;;1.30;;
4214;SDS011;2121;48.062;7.850;2023-12-20T00:08:42;1.27;;;1.23;;
4214;SDS011;2121;48.062;7.850;2023-12-20T00:11:09;1.43;;;1.33;;
4214;SDS011;2121;48.062;7.850;2023-12-20T00:13:34;1.50;;;1.30;;
4214;SDS011;2121;48.062;7.850;2023-12-20T00:16:00;1.60;;;1.50;;
4214;SDS011;2121;48.062;7.850;2023-12-20T00:18:26;1.60;;;1.50;;
4214;SDS011;2121;48.062;7.850;2023-12-20T00:20:51;1.40;;;1.30;;
4214;SDS011;2121;48.062;7.850;2023-12-20T00:23:17;1.70;;;1.60;;
4214;SDS011;2121;48.062;7.850;2023-12-20T00:25:43;1.37;;;1.33;;
4214;SDS011;2121;48.062;7.850;2023-12-20T00:28:08;1.37;;;1.37;;
4214;SDS011;2121;48.062;7.850;2023-12-20T00:30:34;1.63;;;1.53;;
4214;SDS011;2121;48.062;7.850;2023-12-20T00:33:01;1.80;;;1.67;;
4214;SDS011;2121;48.062;7.850;2023-12-20T00:35:27;1.50;;;1.40;;
4214;SDS011;2121;48.062;7.850;2023-12-20T00:37:53;1.67;;;1.57;;
4214;SDS011;2121;48.062;7.850;2023-12-20T00:40:18;1.50;;;1.40;;
4214;SDS011;2121;48.062;7.850;2023-12-20T00:42:45;2.77;;;1.80;;
4214;SDS011;2121;48.062;7.850;2023-12-20T00:45:12;2.93;;;2.23;;
4214;SDS011;2121;48.062;7.850;2023-12-20T00:47:38;1.57;;;1.57;;
4214;SDS011;2121;48.062;7.850;2023-12-20T00:50:04;4.70;;;1.70;;
4214;SDS011;2121;48.062;7.850;2023-12-20T00:52:31;2.20;;;2.10;;
4214;SDS011;2121;48.062;7.850;2023-12-20T00:54:56;2.33;;;1.97;;
4214;SDS011;2121;48.062;7.850;2023-12-20T00:57:22;1.70;;;1.60;;
4214;SDS011;2121;48.062;7.850;2023-12-20T00:59:48;2.53;;;1.83;;
4214;SDS011;2121;48.062;7.850;2023-12-20T01:02:14;1.83;;;1.70;;
4214;SDS011;2121;48.062;7.850;2023-12-20T01:04:40;1.70;;;1.60;;
4214;SDS011;2121;48.062;7.850;2023-12-20T01:07:05;2.20;;;2.10;;
4214;SDS011;2121;48.062;7.850;2023-12-20T01:09:31;2.27;;;1.90;;
4214;SDS011;2121;48.062;7.850;2023-12-20T01:11:57;2.60;;;2.37;;
4214;SDS011;2121;48.062;7.850;2023-12-20T01:14:22;2.70;;;2.37;;
4214;SDS011;2121;48.062;7.850;2023-12-20T01:16:48;2.40;;;2.23;;
4214;SDS011;2121;48.062;7.850;2023-12-20T01:19:14;1.87;;;1.77;;
4214;SDS011;2121;48.062;7.850;2023-12-20T01:21:40;2.50;;;2.30;;
4214;SDS011;2121;48.062;7.850;2023-12-20T01:24:05;2.03;;;1.93;;
4214;SDS011;2121;48.062;7.850;2023-12-20T01:26:31;3.80;;;2.67;;
4214;SDS011;2121;48.062;7.850;2023-12-20T01:28:57;2.67;;;1.97;;
4214;SDS011;2121;48.062;7.850;2023-12-20T01:31:23;1.90;;;1.80;;
4214;SDS011;2121;48.062;7.850;2023-12-20T01:33:49;1.80;;;1.67;;
4214;SDS011;2121;48.062;7.850;2023-12-20T01:36:14;1.97;;;1.87;;
4214;SDS011;2121;48.062;7.850;2023-12-20T01:38:41;1.70;;;1.60;;
4214;SDS011;2121;48.062;7.850;2023-12-20T01:41:07;2.20;;;2.00;;
4214;SDS011;2121;48.062;7.850;2023-12-20T01:43:32;2.20;;;2.10;;
4214;SDS011;2121;48.062;7.850;2023-12-20T01:45:58;1.80;;;1.70;;
4214;SDS011;2121;48.062;7.850;2023-12-20T01:48:24;2.00;;;1.90;;
4214;SDS011;2121;48.062;7.850;2023-12-20T01:50:51;2.00;;;1.90;;
4214;SDS011;2121;48.062;7.850;2023-12-20T01:53:17;1.30;;;1.20;;
4214;SDS011;2121;48.062;7.850;2023-12-20T01:55:46;1.60;;;1.50;;
4214;SDS011;2121;48.062;7.850;2023-12-20T01:58:14;3.00;;;1.67;;
4214;SDS011;2121;48.062;7.850;2023-12-20T02:00:40;1.97;;;1.77;;
4214;SDS011;2121;48.062;7.850;2023-12-20T02:03:06;1.30;;;1.30;;
4214;SDS011;2121;48.062;7.850;2023-12-20T02:05:33;1.80;;;1.70;;
4214;SDS011;2121;48.062;7.850;2023-12-20T02:08:01;1.50;;;1.40;;
4214;SDS011;2121;48.062;7.850;2023-12-20T02:10:26;1.80;;;1.53;;
4214;SDS011;2121;48.062;7.850;2023-12-20T02:12:53;1.97;;;1.77;;
4214;SDS011;2121;48.062;7.850;2023-12-20T02:15:19;1.97;;;1.63;;
4214;SDS011;2121;48.062;7.850;2023-12-20T02:17:45;2.70;;;1.70;;
4214;SDS011;2121;48.062;7.850;2023-12-20T02:20:13;1.50;;;1.50;;
4214;SDS011;2121;48.062;7.850;2023-12-20T02:22:39;1.60;;;1.50;;
4214;SDS011;2121;48.062;7.850;2023-12-20T02:25:04;1.10;;;1.10;;
4214;SDS011;2121;48.062;7.850;2023-12-20T02:27:30;1.20;;;1.20;;
4214;SDS011;2121;48.062;7.850;2023-12-20T02:29:56;1.60;;;1.33;;
4214;SDS011;2121;48.062;7.850;2023-12-20T02:32:22;2.00;;;1.80;;
4214;SDS011;2121;48.062;7.850;2023-12-20T02:34:51;1.33;;;1.23;;
4214;SDS011;2121;48.062;7.850;2023-12-20T02:37:17;1.50;;;1.47;;
4214;SDS011;2121;48.062;7.850;2023-12-20T02:39:42;1.57;;;1.47;;
4214;SDS011;2121;48.062;7.850;2023-12-20T02:42:08;1.53;;;1.20;;
4214;SDS011;2121;48.062;7.850;2023-12-20T02:44:34;1.50;;;1.40;;
4214;SDS011;2121;48.062;7.850;2023-12-20T02:47:00;1.53;;;1.53;;
4214;SDS011;2121;48.062;7.850;2023-12-20T02:49:25;1.30;;;1.30;;
4214;SDS011;2121;48.062;7.850;2023-12-20T02:51:51;4.33;;;1.70;;
4214;SDS011;2121;48.062;7.850;2023-12-20T02:54:17;1.70;;;1.60;;
4214;SDS011;2121;48.062;7.850;2023-12-20T02:56:42;1.57;;;1.50;;
4214;SDS011;2121;48.062;7.850;2023-12-20T02:59:08;1.70;;;1.60;;
4214;SDS011;2121;48.062;7.850;2023-12-20T03:01:34;1.37;;;1.30;;
4214;SDS011;2121;48.062;7.850;2023-12-20T03:04:00;1.90;;;1.80;;
4214;SDS011;2121;48.062;7.850;2023-12-20T03:06:26;2.20;;;1.83;;
4214;SDS011;2121;48.062;7.850;2023-12-20T03:08:52;2.30;;;2.10;;
4214;SDS011;2121;48.062;7.850;2023-12-20T03:11:18;2.00;;;1.80;;
4214;SDS011;2121;48.062;7.850;2023-12-20T03:13:43;1.73;;;1.63;;
4214;SDS011;2121;48.062;7.850;2023-12-20T03:16:10;1.73;;;1.63;;
4214;SDS011;2121;48.062;7.850;2023-12-20T03:18:36;1.70;;;1.60;;
4214;SDS011;2121;48.062;7.850;2023-12-20T03:21:02;1.57;;;1.57;;
4214;SDS011;2121;48.062;7.850;2023-12-20T03:23:29;2.30;;;2.10;;
4214;SDS011;2121;48.062;7.850;2023-12-20T03:25:57;1.77;;;1.67;;
4214;SDS011;2121;48.062;7.850;2023-12-20T03:28:23;1.60;;;1.50;;
4214;SDS011;2121;48.062;7.850;2023-12-20T03:30:49;1.83;;;1.73;;
4214;SDS011;2121;48.062;7.850;2023-12-20T03:33:15;1.70;;;1.70;;
4214;SDS011;2121;48.062;7.850;2023-12-20T03:35:41;1.57;;;1.53;;
4214;SDS011;2121;48.062;7.850;2023-12-20T03:38:07;1.50;;;1.40;;
4214;SDS011;2121;48.062;7.850;2023-12-20T03:40:33;1.83;;;1.73;;
4214;SDS011;2121;48.062;7.850;2023-12-20T03:42:58;1.63;;;1.53;;
4214;SDS011;2121;48.062;7.850;2023-12-20T03:45:24;1.50;;;1.40;;
4214;SDS011;2121;48.062;7.850;2023-12-20T03:47:50;2.00;;;1.90;;
4214;SDS011;2121;48.062;7.850;2023-12-20T03:50:20;1.90;;;1.80;;
4214;SDS011;2121;48.062;7.850;2023-12-20T03:52:47;1.63;;;1.60;;
4214;SDS011;2121;48.062;7.850;2023-12-20T03:55:13;1.63;;;1.57;;
4214;SDS011;2121;48.062;7.850;2023-12-20T03:57:39;1.67;;;1.57;;
4214;SDS011;2121;48.062;7.850;2023-12-20T04:00:05;1.53;;;1.43;;
4214;SDS011;2121;48.062;7.850;2023-12-20T04:02:36;1.40;;;1.30;;
4214;SDS011;2121;48.062;7.850;2023-12-20T04:05:05;1.20;;;1.20;;
4214;SDS011;2121;48.062;7.850;2023-12-20T04:07:32;1.77;;;1.67;;
4214;SDS011;2121;48.062;7.850;2023-12-20T04:09:59;1.30;;;1.30;;
4214;SDS011;2121;48.062;7.850;2023-12-20T04:12:25;1.37;;;1.27;;
4214;SDS011;2121;48.062;7.850;2023-12-20T04:14:52;1.10;;;1.10;;
4214;SDS011;2121;48.062;7.850;2023-12-20T04:17:17;1.90;;;1.33;;
4214;SDS011;2121;48.062;7.850;2023-12-20T04:19:44;1.37;;;1.27;;
4214;SDS011;2121;48.062;7.850;2023-12-20T04:22:09;1.23;;;1.23;;
4214;SDS011;2121;48.062;7.850;2023-12-20T04:24:35;1.53;;;1.43;;
4214;SDS011;2121;48.062;7.850;2023-12-20T04:27:01;1.43;;;1.37;;
4214;SDS011;2121;48.062;7.850;2023-12-20T04:29:27;1.30;;;1.20;;
4214;SDS011;2121;48.062;7.850;2023-12-20T04:31:53;2.20;;;1.27;;
4214;SDS011;2121;48.062;7.850;2023-12-20T04:34:19;1.17;;;1.17;;
4214;SDS011;2121;48.062;7.850;2023-12-20T04:36:45;1.23;;;1.23;;
4214;SDS011;2121;48.062;7.850;2023-12-20T04:39:12;1.77;;;1.20;;
4214;SDS011;2121;48.062;7.850;2023-12-20T04:41:40;1.30;;;1.20;;
4214;SDS011;2121;48.062;7.850;2023-12-20T04:44:05;1.20;;;1.20;;
4214;SDS011;2121;48.062;7.850;2023-12-20T04:46:31;1.30;;;1.20;;
4214;SDS011;2121;48.062;7.850;2023-12-20T04:48:57;1.80;;;1.70;;
4214;SDS011;2121;48.062;7.850;2023-12-20T04:51:23;2.60;;;1.40;;
4214;SDS011;2121;48.062;7.850;2023-12-20T04:53:49;1.43;;;1.33;;
4214;SDS011;2121;48.062;7.850;2023-12-20T04:56:14;1.60;;;1.50;;
4214;SDS011;2121;48.062;7.850;2023-12-20T04:58:40;1.20;;;1.20;;
4214;SDS011;2121;48.062;7.850;2023-12-20T05:01:07;1.23;;;1.13;;
4214;SDS011;2121;48.062;7.850;2023-12-20T05:03:34;1.30;;;1.30;;
4214;SDS011;2121;48.062;7.850;2023-12-20T05:06:00;1.00;;;1.00;;
4214;SDS011;2121;48.062;7.850;2023-12-20T05:08:26;1.33;;;1.30;;
4214;SDS011;2121;48.062;7.850;2023-12-20T05:10:54;1.00;;;1.00;;
4214;SDS011;2121;48.062;7.850;2023-12-20T05:13:20;1.40;;;1.30;;
4214;SDS011;2121;48.062;7.850;2023-12-20T05:15:46;1.00;;;1.00;;
4214;SDS011;2121;48.062;7.850;2023-12-20T05:18:12;1.37;;;1.27;;
4214;SDS011;2121;48.062;7.850;2023-12-20T05:20:38;3.30;;;1.40;;
4214;SDS011;2121;48.062;7.850;2023-12-20T05:23:05;1.10;;;1.10;;
4214;SDS011;2121;48.062;7.850;2023-12-20T05:25:32;1.43;;;1.33;;
4214;SDS011;2121;48.062;7.850;2023-12-20T05:27:57;1.27;;;1.27;;
4214;SDS011;2121;48.062;7.850;2023-12-20T05:30:23;1.30;;;1.30;;
4214;SDS011;2121;48.062;7.850;2023-12-20T05:32:49;1.10;;;1.10;;
4214;SDS011;2121;48.062;7.850;2023-12-20T05:35:15;1.10;;;1.10;;
4214;SDS011;2121;48.062;7.850;2023-12-20T05:37:41;1.63;;;1.47;;
4214;SDS011;2121;48.062;7.850;2023-12-20T05:40:07;1.30;;;1.30;;
4214;SDS011;2121;48.062;7.850;2023-12-20T05:42:35;1.20;;;1.13;;
4214;SDS011;2121;48.062;7.850;2023-12-20T05:45:02;1.30;;;1.20;;
4214;SDS011;2121;48.062;7.850;2023-12-20T05:47:29;1.10;;;1.10;;
4214;SDS011;2121;48.062;7.850;2023-12-20T05:49:55;1.33;;;1.10;;
4214;SDS011;2121;48.062;7.850;2023-12-20T05:52:21;1.30;;;1.30;;
4214;SDS011;2121;48.062;7.850;2023-12-20T05:54:47;1.40;;;1.30;;
4214;SDS011;2121;48.062;7.850;2023-12-20T05:57:12;1.20;;;1.20;;
4214;SDS011;2121;48.062;7.850;2023-12-20T05:59:38;1.40;;;1.30;;
4214;SDS011;2121;48.062;7.850;2023-12-20T06:02:04;1.30;;;1.30;;
4214;SDS011;2121;48.062;7.850;2023-12-20T06:04:30;1.00;;;1.00;;
4214;SDS011;2121;48.062;7.850;2023-12-20T06:06:57;1.40;;;1.30;;
4214;SDS011;2121;48.062;7.850;2023-12-20T06:09:22;1.10;;;1.10;;
4214;SDS011;2121;48.062;7.850;2023-12-20T06:11:48;1.20;;;1.20;;
4214;SDS011;2121;48.062;7.850;2023-12-20T06:14:14;2.07;;;1.60;;
4214;SDS011;2121;48.062;7.850;2023-12-20T06:16:40;1.50;;;1.40;;
4214;SDS011;2121;48.062;7.850;2023-12-20T06:19:06;1.27;;;1.27;;
4214;SDS011;2121;48.062;7.850;2023-12-20T06:21:31;1.33;;;1.30;;
4214;SDS011;2121;48.062;7.850;2023-12-20T06:23:58;1.65;;;1.30;;
4214;SDS011;2121;48.062;7.850;2023-12-20T06:26:24;1.33;;;1.30;;
4214;SDS011;2121;48.062;7.850;2023-12-20T06:28:50;1.10;;;1.10;;
4214;SDS011;2121;48.062;7.850;2023-12-20T06:31:16;1.25;;;1.25;;
4214;SDS011;2121;48.062;7.850;2023-12-20T06:33:42;1.60;;;1.40;;
4214;SDS011;2121;48.062;7.850;2023-12-20T06:36:12;2.63;;;1.57;;
4214;SDS011;2121;48.062;7.850;2023-12-20T06:38:38;1.27;;;1.17;;
4214;SDS011;2121;48.062;7.850;2023-12-20T06:41:05;1.10;;;1.10;;
4214;SDS011;2121;48.062;7.850;2023-12-20T06:43:31;1.30;;;1.30;;
4214;SDS011;2121;48.062;7.850;2023-12-20T06:45:57;4.30;;;1.30;;
4214;SDS011;2121;48.062;7.850;2023-12-20T06:48:23;1.20;;;1.10;;
4214;SDS011;2121;48.062;7.850;2023-12-20T06:50:49;1.13;;;1.13;;
4214;SDS011;2121;48.062;7.850;2023-12-20T06:53:15;1.20;;;1.20;;
4214;SDS011;2121;48.062;7.850;2023-12-20T06:55:41;1.13;;;1.13;;
4214;SDS011;2121;48.062;7.850;2023-12-20T06:58:07;1.10;;;1.10;;
4214;SDS011;2121;48.062;7.850;2023-12-20T07:00:33;1.10;;;1.10;;
4214;SDS011;2121;48.062;7.850;2023-12-20T07:03:00;2.20;;;1.50;;
4214;SDS011;2121;48.062;7.850;2023-12-20T07:05:25;1.93;;;1.27;;
4214;SDS011;2121;48.062;7.850;2023-12-20T07:07:51;1.33;;;1.33;;
4214;SDS011;2121;48.062;7.850;2023-12-20T07:10:17;1.50;;;1.40;;
4214;SDS011;2121;48.062;7.850;2023-12-20T07:12:43;1.37;;;1.37;;
4214;SDS011;2121;48.062;7.850;2023-12-20T07:15:09;1.40;;;1.30;;
4214;SDS011;2121;48.062;7.850;2023-12-20T07:17:35;2.10;;;1.60;;
4214;SDS011;2121;48.062;7.850;2023-12-20T07:20:01;1.50;;;1.40;;
4214;SDS011;2121;48.062;7.850;2023-12-20T07:22:31;1.77;;;1.67;;
4214;SDS011;2121;48.062;7.850;2023-12-20T07:24:58;1.60;;;1.50;;
4214;SDS011;2121;48.062;7.850;2023-12-20T07:27:24;1.50;;;1.40;;
4214;SDS011;2121;48.062;7.850;2023-12-20T07:29:51;1.95;;;1.40;;
4214;SDS011;2121;48.062;7.850;2023-12-20T07:32:17;1.38;;;1.27;;
4214;SDS011;2121;48.062;7.850;2023-12-20T07:34:42;1.20;;;1.20;;
4214;SDS011;2121;48.062;7.850;2023-12-20T07:37:08;1.40;;;1.30;;
4214;SDS011;2121;48.062;7.850;2023-12-20T07:39:36;1.37;;;1.30;;
4214;SDS011;2121;48.062;7.850;2023-12-20T07:42:05;1.47;;;1.37;;
4214;SDS011;2121;48.062;7.850;2023-12-20T07:44:31;1.53;;;1.47;;
4214;SDS011;2121;48.062;7.850;2023-12-20T07:46:56;1.27;;;1.27;;
4214;SDS011;2121;48.062;7.850;2023-12-20T07:49:23;3.03;;;1.30;;
4214;SDS011;2121;48.062;7.850;2023-12-20T07:51:49;4.00;;;2.70;;
4214;SDS011;2121;48.062;7.850;2023-12-20T07:54:15;3.70;;;2.17;;
4214;SDS011;2121;48.062;7.850;2023-12-20T07:56:41;1.77;;;1.67;;
4214;SDS011;2121;48.062;7.850;2023-12-20T07:59:07;2.70;;;2.10;;
4214;SDS011;2121;48.062;7.850;2023-12-20T08:01:32;1.60;;;1.50;;
4214;SDS011;2121;48.062;7.850;2023-12-20T08:03:58;2.13;;;1.90;;
4214;SDS011;2121;48.062;7.850;2023-12-20T08:06:24;5.70;;;3.13;;
4214;SDS011;2121;48.062;7.850;2023-12-20T08:08:49;5.83;;;2.20;;
4214;SDS011;2121;48.062;7.850;2023-12-20T08:11:15;1.30;;;1.30;;
4214;SDS011;2121;48.062;7.850;2023-12-20T08:13:41;2.43;;;1.60;;
4214;SDS011;2121;48.062;7.850;2023-12-20T08:16:07;1.30;;;1.30;;
4214;SDS011;2121;48.062;7.850;2023-12-20T08:18:33;1.20;;;1.20;;
4214;SDS011;2121;48.062;7.850;2023-12-20T08:20:58;1.40;;;1.30;;
4214;SDS011;2121;48.062;7.850;2023-12-20T08:23:25;2.50;;;1.77;;
4214;SDS011;2121;48.062;7.850;2023-12-20T08:25:51;1.20;;;1.20;;
4214;SDS011;2121;48.062;7.850;2023-12-20T08:28:17;1.63;;;1.53;;
4214;SDS011;2121;48.062;7.850;2023-12-20T08:30:42;1.50;;;1.23;;
4214;SDS011;2121;48.062;7.850;2023-12-20T08:33:08;1.77;;;1.67;;
4214;SDS011;2121;48.062;7.850;2023-12-20T08:35:38;1.57;;;1.47;;
4214;SDS011;2121;48.062;7.850;2023-12-20T08:38:05;1.70;;;1.60;;
4214;SDS011;2121;48.062;7.850;2023-12-20T08:40:31;3.03;;;2.10;;
4214;SDS011;2121;48.062;7.850;2023-12-20T08:42:56;1.60;;;1.60;;
4214;SDS011;2121;48.062;7.850;2023-12-20T08:45:22;1.83;;;1.73;;
4214;SDS011;2121;48.062;7.850;2023-12-20T08:47:48;2.20;;;2.03;;
4214;SDS011;2121;48.062;7.850;2023-12-20T08:50:13;1.70;;;1.60;;
4214;SDS011;2121;48.062;7.850;2023-12-20T08:52:40;1.77;;;1.67;;
4214;SDS011;2121;48.062;7.850;2023-12-20T08:55:07;2.20;;;2.03;;
4214;SDS011;2121;48.062;7.850;2023-12-20T08:57:33;3.03;;;2.20;;
4214;SDS011;2121;48.062;7.850;2023-12-20T08:59:58;2.23;;;2.00;;
4214;SDS011;2121;48.062;7.850;2023-12-20T09:02:24;2.13;;;2.00;;
4214;SDS011;2121;48.062;7.850;2023-12-20T09:04:50;11.53;;;5.53;;
4214;SDS011;2121;48.062;7.850;2023-12-20T09:09:49;6.43;;;4.40;;
4214;SDS011;2121;48.062;7.850;2023-12-20T09:12:15;5.20;;;3.77;;
4214;SDS011;2121;48.062;7.850;2023-12-20T09:14:43;3.30;;;3.00;;
4214;SDS011;2121;48.062;7.850;2023-12-20T09:17:09;3.47;;;3.17;;
4214;SDS011;2121;48.062;7.850;2023-12-20T09:19:36;3.00;;;2.80;;
4214;SDS011;2121;48.062;7.850;2023-12-20T09:22:02;3.03;;;2.73;;
4214;SDS011;2121;48.062;7.850;2023-12-20T09:24:28;2.57;;;2.37;;
4214;SDS011;2121;48.062;7.850;2023-12-20T09:26:55;4.87;;;2.40;;
4214;SDS011;2121;48.062;7.850;2023-12-20T09:29:21;4.13;;;3.17;;
4214;SDS011;2121;48.062;7.850;2023-12-20T09:31:47;2.87;;;2.60;;
4214;SDS011;2121;48.062;7.850;2023-12-20T09:34:14;2.43;;;2.00;;
4214;SDS011;2121;48.062;7.850;2023-12-20T09:36:42;2.70;;;2.37;;
4214;SDS011;2121;48.062;7.850;2023-12-20T09:39:15;4.33;;;3.13;;
4214;SDS011;2121;48.062;7.850;2023-12-20T09:41:54;3.43;;;2.97;;
4214;SDS011;2121;48.062;7.850;2023-12-20T09:44:29;3.03;;;2.50;;
4214;SDS011;2121;48.062;7.850;2023-12-20T09:46:57;5.90;;;3.30;;
4214;SDS011;2121;48.062;7.850;2023-12-20T09:49:27;11.83;;;6.40;;
4214;SDS011;2121;48.062;7.850;2023-12-20T09:51:54;6.73;;;4.10;;
4214;SDS011;2121;48.062;7.850;2023-12-20T09:54:20;13.83;;;7.30;;
4214;SDS011;2121;48.062;7.850;2023-12-20T09:56:47;8.07;;;5.57;;
4214;SDS011;2121;48.062;7.850;2023-12-20T09:59:14;4.30;;;3.90;;
4214;SDS011;2121;48.062;7.850;2023-12-20T10:01:43;5.70;;;5.00;;
4214;SDS011;2121;48.062;7.850;2023-12-20T10:04:09;4.60;;;3.80;;
4214;SDS011;2121;48.062;7.850;2023-12-20T10:09:06;2.70;;;2.50;;
4214;SDS011;2121;48.062;7.850;2023-12-20T10:11:32;2.80;;;2.60;;
4214;SDS011;2121;48.062;7.850;2023-12-20T10:14:02;2.73;;;2.33;;
4214;SDS011;2121;48.062;7.850;2023-12-20T10:16:29;3.33;;;2.13;;
4214;SDS011;2121;48.062;7.850;2023-12-20T10:18:55;5.57;;;3.70;;
4214;SDS011;2121;48.062;7.850;2023-12-20T10:21:24;8.20;;;4.13;;
4214;SDS011;2121;48.062;7.850;2023-12-20T10:23:54;3.50;;;2.20;;
4214;SDS011;2121;48.062;7.850;2023-12-20T10:26:22;4.60;;;3.03;;
4214;SDS011;2121;48.062;7.850;2023-12-20T10:28:59;2.50;;;2.30;;
4214;SDS011;2121;48.062;7.850;2023-12-20T10:33:53;5.07;;;2.50;;
4214;SDS011;2121;48.062;7.850;2023-12-20T10:36:18;2.40;;;2.20;;
4214;SDS011;2121;48.062;7.850;2023-12-20T10:38:44;2.27;;;2.17;;
4214;SDS011;2121;48.062;7.850;2023-12-20T10:41:14;3.10;;;2.10;;
4214;SDS011;2121;48.062;7.850;2023-12-20T10:43:43;3.23;;;2.27;;
4214;SDS011;2121;48.062;7.850;2023-12-20T10:46:11;1.90;;;1.80;;
4214;SDS011;2121;48.062;7.850;2023-12-20T10:48:37;3.00;;;2.37;;
4214;SDS011;2121;48.062;7.850;2023-12-20T10:51:05;2.53;;;2.37;;
4214;SDS011;2121;48.062;7.850;2023-12-20T10:53:31;4.27;;;2.43;;
4214;SDS011;2121;48.062;7.850;2023-12-20T10:55:59;5.07;;;2.20;;
4214;SDS011;2121;48.062;7.850;2023-12-20T10:58:28;2.90;;;2.30;;
4214;SDS011;2121;48.062;7.850;2023-12-20T11:00:59;2.53;;;2.37;;
4214;SDS011;2121;48.062;7.850;2023-12-20T11:03:28;3.97;;;2.97;;
4214;SDS011;2121;48.062;7.850;2023-12-20T11:08:39;2.87;;;2.67;;
4214;SDS011;2121;48.062;7.850;2023-12-20T11:11:35;6.93;;;2.33;;
4214;SDS011;2121;48.062;7.850;2023-12-20T11:17:12;1.50;;;1.50;;
4214;SDS011;2121;48.062;7.850;2023-12-20T11:22:21;1.70;;;1.60;;
4214;SDS011;2121;48.062;7.850;2023-12-20T11:24:48;8.10;;;4.30;;
4214;SDS011;2121;48.062;7.850;2023-12-20T11:27:15;4.80;;;2.80;;
4214;SDS011;2121;48.062;7.850;2023-12-20T11:29:41;17.93;;;4.17;;
4214;SDS011;2121;48.062;7.850;2023-12-20T11:34:58;12.67;;;4.63;;
4214;SDS011;2121;48.062;7.850;2023-12-20T11:37:36;4.80;;;2.33;;
4214;SDS011;2121;48.062;7.850;2023-12-20T11:40:07;9.90;;;3.90;;
4214;SDS011;2121;48.062;7.850;2023-12-20T11:42:48;8.97;;;4.23;;
4214;SDS011;2121;48.062;7.850;2023-12-20T11:45:16;4.73;;;2.60;;
4214;SDS011;2121;48.062;7.850;2023-12-20T11:47:48;6.67;;;2.10;;
4214;SDS011;2121;48.062;7.850;2023-12-20T11:50:15;3.30;;;2.80;;
4214;SDS011;2121;48.062;7.850;2023-12-20T11:52:42;4.70;;;3.40;;
4214;SDS011;2121;48.062;7.850;2023-12-20T11:55:08;2.23;;;2.00;;
4214;SDS011;2121;48.062;7.850;2023-12-20T11:57:34;3.43;;;2.17;;
4214;SDS011;2121;48.062;7.850;2023-12-20T12:00:01;2.63;;;1.80;;
4214;SDS011;2121;48.062;7.850;2023-12-20T12:02:28;2.40;;;2.20;;
4214;SDS011;2121;48.062;7.850;2023-12-20T12:04:53;1.53;;;1.43;;
4214;SDS011;2121;48.062;7.850;2023-12-20T12:07:20;2.00;;;1.80;;
4214;SDS011;2121;48.062;7.850;2023-12-20T12:09:46;5.37;;;1.70;;
4214;SDS011;2121;48.062;7.850;2023-12-20T12:12:12;7.13;;;2.33;;
4214;SDS011;2121;48.062;7.850;2023-12-20T12:14:38;4.47;;;1.97;;
4214;SDS011;2121;48.062;7.850;2023-12-20T12:17:09;3.70;;;1.93;;
4214;SDS011;2121;48.062;7.850;2023-12-20T12:19:39;3.20;;;1.90;;
4214;SDS011;2121;48.062;7.850;2023-12-20T12:22:10;3.80;;;2.00;;
4214;SDS011;2121;48.062;7.850;2023-12-20T12:24:44;7.37;;;2.07;;
4214;SDS011;2121;48.062;7.850;2023-12-20T12:27:11;5.57;;;2.10;;
4214;SDS011;2121;48.062;7.850;2023-12-20T12:29:38;1.93;;;1.83;;
4214;SDS011;2121;48.062;7.850;2023-12-20T12:32:07;6.43;;;1.57;;
4214;SDS011;2121;48.062;7.850;2023-12-20T12:34:34;7.00;;;1.53;;
4214;SDS011;2121;48.062;7.850;2023-12-20T12:37:01;6.40;;;3.83;;
4214;SDS011;2121;48.062;7.850;2023-12-20T12:39:29;5.10;;;2.80;;
4214;SDS011;2121;48.062;7.850;2023-12-20T12:41:55;13.67;;;3.20;;
4214;SDS011;2121;48.062;7.850;2023-12-20T12:44:22;6.13;;;2.40;;
4214;SDS011;2121;48.062;7.850;2023-12-20T12:46:51;2.13;;;1.70;;
4214;SDS011;2121;48.062;7.850;2023-12-20T12:49:19;3.80;;;2.00;;
4214;SDS011;2121;48.062;7.850;2023-12-20T12:51:48;7.50;;;2.30;;
4214;SDS011;2121;48.062;7.850;2023-12-20T12:54:14;4.20;;;2.97;;
4214;SDS011;2121;48.062;7.850;2023-12-20T12:56:42;16.87;;;4.13;;
4214;SDS011;2121;48.062;7.850;2023-12-20T12:59:08;11.03;;;4.53;;
4214;SDS011;2121;48.062;7.850;2023-12-20T13:01:34;4.47;;;2.30;;
4214;SDS011;2121;48.062;7.850;2023-12-20T13:03:59;2.90;;;1.93;;
4214;SDS011;2121;48.062;7.850;2023-12-20T13:06:28;3.70;;;2.30;;
4214;SDS011;2121;48.062;7.850;2023-12-20T13:08:53;7.67;;;2.37;;
4214;SDS011;2121;48.062;7.850;2023-12-20T13:11:20;3.80;;;2.30;;
4214;SDS011;2121;48.062;7.850;2023-12-20T13:13:46;7.20;;;1.93;;
4214;SDS011;2121;48.062;7.850;2023-12-20T13:16:12;5.60;;;3.47;;
4214;SDS011;2121;48.062;7.850;2023-12-20T13:18:38;2.03;;;1.93;;
4214;SDS011;2121;48.062;7.850;2023-12-20T13:21:07;2.27;;;1.77;;
4214;SDS011;2121;48.062;7.850;2023-12-20T13:23:34;2.73;;;1.63;;
4214;SDS011;2121;48.062;7.850;2023-12-20T13:25:59;2.50;;;2.17;;
4214;SDS011;2121;48.062;7.850;2023-12-20T13:28:26;7.77;;;2.10;;
4214;SDS011;2121;48.062;7.850;2023-12-20T13:30:52;5.63;;;1.90;;
4214;SDS011;2121;48.062;7.850;2023-12-20T13:33:18;5.27;;;2.23;;
4214;SDS011;2121;48.062;7.850;2023-12-20T13:35:43;3.93;;;2.10;;
4214;SDS011;2121;48.062;7.850;2023-12-20T13:38:09;2.00;;;1.63;;
4214;SDS011;2121;48.062;7.850;2023-12-20T13:40:35;4.10;;;1.73;;
4214;SDS011;2121;48.062;7.850;2023-12-20T13:43:01;6.23;;;1.60;;
4214;SDS011;2121;48.062;7.850;2023-12-20T13:45:28;3.33;;;1.80;;
4214;SDS011;2121;48.062;7.850;2023-12-20T13:47:53;5.07;;;2.37;;
4214;SDS011;2121;48.062;7.850;2023-12-20T13:50:19;3.37;;;2.13;;
4214;SDS011;2121;48.062;7.850;2023-12-20T13:52:45;4.73;;;1.93;;
4214;SDS011;2121;48.062;7.850;2023-12-20T13:55:11;2.33;;;2.13;;
4214;SDS011;2121;48.062;7.850;2023-12-20T13:57:37;3.27;;;2.10;;
4214;SDS011;2121;48.062;7.850;2023-12-20T14:00:03;2.47;;;1.60;;
4214;SDS011;2121;48.062;7.850;2023-12-20T14:02:30;6.70;;;2.43;;
4214;SDS011;2121;48.062;7.850;2023-12-20T14:04:56;4.13;;;2.27;;
4214;SDS011;2121;48.062;7.850;2023-12-20T14:07:21;1.87;;;1.60;;
4214;SDS011;2121;48.062;7.850;2023-12-20T14:09:47;2.73;;;1.70;;
4214;SDS011;2121;48.062;7.850;2023-12-20T14:12:13;2.50;;;2.30;;
4214;SDS011;2121;48.062;7.850;2023-12-20T14:14:40;5.20;;;2.50;;
4214;SDS011;2121;48.062;7.850;2023-12-20T14:17:05;4.60;;;1.90;;
4214;SDS011;2121;48.062;7.850;2023-12-20T14:19:31;4.30;;;1.97;;
4214;SDS011;2121;48.062;7.850;2023-12-20T14:21:57;4.60;;;1.87;;
4214;SDS011;2121;48.062;7.850;2023-12-20T14:24:26;3.53;;;2.27;;
4214;SDS011;2121;48.062;7.850;2023-12-20T14:26:52;4.47;;;1.70;;
4214;SDS011;2121;48.062;7.850;2023-12-20T14:29:18;1.60;;;1.43;;
4214;SDS011;2121;48.062;7.850;2023-12-20T14:31:44;2.80;;;2.13;;
4214;SDS011;2121;48.062;7.850;2023-12-20T14:34:10;5.43;;;2.40;;
4214;SDS011;2121;48.062;7.850;2023-12-20T14:36:36;2.47;;;2.00;;
4214;SDS011;2121;48.062;7.850;2023-12-20T14:39:03;4.97;;;2.27;;
4214;SDS011;2121;48.062;7.850;2023-12-20T14:41:29;2.10;;;2.00;;
4214;SDS011;2121;48.062;7.850;2023-12-20T14:43:56;5.87;;;2.47;;
4214;SDS011;2121;48.062;7.850;2023-12-20T14:46:21;4.03;;;1.87;;
4214;SDS011;2121;48.062;7.850;2023-12-20T14:48:47;2.83;;;2.53;;
4214;SDS011;2121;48.062;7.850;2023-12-20T14:51:14;7.20;;;2.37;;
4214;SDS011;2121;48.062;7.850;2023-12-20T14:53:40;10.30;;;2.03;;
4214;SDS011;2121;48.062;7.850;2023-12-20T14:56:07;3.30;;;2.63;;
4214;SDS011;2121;48.062;7.850;2023-12-20T14:58:33;5.03;;;4.67;;
4214;SDS011;2121;48.062;7.850;2023-12-20T15:00:58;7.33;;;2.23;;
4214;SDS011;2121;48.062;7.850;2023-12-20T15:03:26;3.47;;;2.40;;
4214;SDS011;2121;48.062;7.850;2023-12-20T15:05:51;1.87;;;1.70;;
4214;SDS011;2121;48.062;7.850;2023-12-20T15:08:17;6.87;;;2.30;;
4214;SDS011;2121;48.062;7.850;2023-12-20T15:10:43;2.57;;;1.90;;
4214;SDS011;2121;48.062;7.850;2023-12-20T15:13:08;4.70;;;1.97;;
4214;SDS011;2121;48.062;7.850;2023-12-20T15:15:34;7.73;;;1.90;;
4214;SDS011;2121;48.062;7.850;2023-12-20T15:18:00;7.87;;;2.97;;
4214;SDS011;2121;48.062;7.850;2023-12-20T15:20:28;1.73;;;1.60;;
4214;SDS011;2121;48.062;7.850;2023-12-20T15:22:54;4.53;;;2.03;;
4214;SDS011;2121;48.062;7.850;2023-12-20T15:25:23;4.93;;;1.97;;
4214;SDS011;2121;48.062;7.850;2023-12-20T15:27:49;2.80;;;1.70;;
4214;SDS011;2121;48.062;7.850;2023-12-20T15:30:18;5.23;;;2.07;;